Terminal Aerodrome Forecast
Issued by NWS

Current Version | Previous Version | Text Only | Print | Product List | Glossary Off
Versions: 1 2 3 4 5 6 7 8 9 10 11 12 13 14 15 16 17 18 19

000
FTUS41 KILN 252300
TAFLUK
TAF
KLUK 252330Z 2600/2624 03005KT 5SM -RA BR OVC035
      TEMPO 2603/2605 01011G21KT 1SM -SNRA OVC007
     FM260500 36013G21KT 2SM -SN OVC007
     FM260800 34011G19KT P6SM OVC020
     FM261200 34011KT P6SM OVC020
     FM261700 32010KT P6SM SCT022 BKN250
     FM262200 34005KT P6SM OVC100=

USA.gov is the U.S. government's official web portal to all federal, state and local government web resources and services.